sensor_id;sensor_type;location;lat;lon;timestamp;P1;durP1;ratioP1;P2;durP2;ratioP2
24425;SDS011;12611;44.446;26.000;2022-12-20T00:01:32;44.90;;;20.15;;
24425;SDS011;12611;44.446;26.000;2022-12-20T00:04:03;39.60;;;17.10;;
24425;SDS011;12611;44.446;26.000;2022-12-20T00:06:32;39.30;;;15.60;;
24425;SDS011;12611;44.446;26.000;2022-12-20T00:09:02;39.20;;;15.80;;
24425;SDS011;12611;44.446;26.000;2022-12-20T00:11:33;39.97;;;16.50;;
24425;SDS011;12611;44.446;26.000;2022-12-20T00:14:01;44.00;;;17.00;;
24425;SDS011;12611;44.446;26.000;2022-12-20T00:16:30;39.43;;;16.30;;
24425;SDS011;12611;44.446;26.000;2022-12-20T00:18:59;45.07;;;17.03;;
24425;SDS011;12611;44.446;26.000;2022-12-20T00:21:30;41.90;;;17.00;;
24425;SDS011;12611;44.446;26.000;2022-12-20T00:23:59;44.80;;;16.50;;
24425;SDS011;12611;44.446;26.000;2022-12-20T00:26:29;47.92;;;19.77;;
24425;SDS011;12611;44.446;26.000;2022-12-20T00:28:58;45.43;;;17.53;;
24425;SDS011;12611;44.446;26.000;2022-12-20T00:31:29;45.70;;;17.70;;
24425;SDS011;12611;44.446;26.000;2022-12-20T00:33:59;45.30;;;17.57;;
24425;SDS011;12611;44.446;26.000;2022-12-20T00:36:30;44.53;;;18.23;;
24425;SDS011;12611;44.446;26.000;2022-12-20T00:38:59;53.20;;;20.60;;
24425;SDS011;12611;44.446;26.000;2022-12-20T00:41:29;48.50;;;15.73;;
24425;SDS011;12611;44.446;26.000;2022-12-20T00:43:58;39.80;;;15.57;;
24425;SDS011;12611;44.446;26.000;2022-12-20T00:46:28;42.17;;;16.60;;
24425;SDS011;12611;44.446;26.000;2022-12-20T00:48:57;37.47;;;15.63;;
24425;SDS011;12611;44.446;26.000;2022-12-20T00:51:26;45.55;;;18.05;;
24425;SDS011;12611;44.446;26.000;2022-12-20T00:53:57;42.83;;;16.53;;
24425;SDS011;12611;44.446;26.000;2022-12-20T00:56:26;38.37;;;16.20;;
24425;SDS011;12611;44.446;26.000;2022-12-20T00:58:56;44.57;;;16.33;;
24425;SDS011;12611;44.446;26.000;2022-12-20T01:01:26;38.83;;;16.20;;
24425;SDS011;12611;44.446;26.000;2022-12-20T01:03:56;41.57;;;18.77;;
24425;SDS011;12611;44.446;26.000;2022-12-20T01:06:25;45.60;;;17.63;;
24425;SDS011;12611;44.446;26.000;2022-12-20T01:08:54;45.30;;;18.33;;
24425;SDS011;12611;44.446;26.000;2022-12-20T01:11:25;42.03;;;18.20;;
24425;SDS011;12611;44.446;26.000;2022-12-20T01:13:56;45.57;;;17.80;;
24425;SDS011;12611;44.446;26.000;2022-12-20T01:16:27;50.27;;;17.10;;
24425;SDS011;12611;44.446;26.000;2022-12-20T01:18:57;42.17;;;17.87;;
24425;SDS011;12611;44.446;26.000;2022-12-20T01:21:26;41.90;;;15.80;;
24425;SDS011;12611;44.446;26.000;2022-12-20T01:23:54;40.73;;;16.53;;
24425;SDS011;12611;44.446;26.000;2022-12-20T01:26:26;38.90;;;15.57;;
24425;SDS011;12611;44.446;26.000;2022-12-20T01:28:56;45.63;;;19.20;;
24425;SDS011;12611;44.446;26.000;2022-12-20T01:31:26;40.07;;;16.60;;
24425;SDS011;12611;44.446;26.000;2022-12-20T01:33:55;46.10;;;18.60;;
24425;SDS011;12611;44.446;26.000;2022-12-20T01:36:25;45.30;;;17.37;;
24425;SDS011;12611;44.446;26.000;2022-12-20T01:38:55;48.03;;;17.80;;
24425;SDS011;12611;44.446;26.000;2022-12-20T01:41:26;54.50;;;17.07;;
24425;SDS011;12611;44.446;26.000;2022-12-20T01:43:55;42.30;;;16.90;;
24425;SDS011;12611;44.446;26.000;2022-12-20T01:46:26;40.87;;;17.13;;
24425;SDS011;12611;44.446;26.000;2022-12-20T01:48:58;43.60;;;17.30;;
24425;SDS011;12611;44.446;26.000;2022-12-20T01:51:33;39.67;;;16.57;;
24425;SDS011;12611;44.446;26.000;2022-12-20T01:54:06;39.73;;;16.70;;
24425;SDS011;12611;44.446;26.000;2022-12-20T01:56:41;41.73;;;16.30;;
24425;SDS011;12611;44.446;26.000;2022-12-20T01:59:11;43.60;;;17.73;;
24425;SDS011;12611;44.446;26.000;2022-12-20T02:01:40;44.83;;;20.03;;
24425;SDS011;12611;44.446;26.000;2022-12-20T02:04:10;48.20;;;17.40;;
24425;SDS011;12611;44.446;26.000;2022-12-20T02:06:38;41.27;;;16.13;;
24425;SDS011;12611;44.446;26.000;2022-12-20T02:09:07;42.00;;;17.93;;
24425;SDS011;12611;44.446;26.000;2022-12-20T02:11:43;42.80;;;17.43;;
24425;SDS011;12611;44.446;26.000;2022-12-20T02:14:25;43.60;;;17.37;;
24425;SDS011;12611;44.446;26.000;2022-12-20T02:17:04;46.27;;;17.73;;
24425;SDS011;12611;44.446;26.000;2022-12-20T02:19:44;44.57;;;16.13;;
24425;SDS011;12611;44.446;26.000;2022-12-20T02:22:36;47.95;;;20.55;;
24425;SDS011;12611;44.446;26.000;2022-12-20T02:25:29;48.53;;;18.63;;
24425;SDS011;12611;44.446;26.000;2022-12-20T02:28:18;46.43;;;18.73;;
24425;SDS011;12611;44.446;26.000;2022-12-20T02:31:03;41.93;;;18.73;;
24425;SDS011;12611;44.446;26.000;2022-12-20T02:33:35;41.87;;;17.73;;
24425;SDS011;12611;44.446;26.000;2022-12-20T02:36:04;49.53;;;18.27;;
24425;SDS011;12611;44.446;26.000;2022-12-20T02:38:34;46.07;;;18.23;;
24425;SDS011;12611;44.446;26.000;2022-12-20T02:41:05;50.00;;;18.73;;
24425;SDS011;12611;44.446;26.000;2022-12-20T02:43:36;52.10;;;18.67;;
24425;SDS011;12611;44.446;26.000;2022-12-20T02:46:27;49.30;;;18.83;;
24425;SDS011;12611;44.446;26.000;2022-12-20T02:48:58;51.42;;;21.90;;
24425;SDS011;12611;44.446;26.000;2022-12-20T02:51:29;47.00;;;20.10;;
24425;SDS011;12611;44.446;26.000;2022-12-20T02:53:59;60.03;;;20.60;;
24425;SDS011;12611;44.446;26.000;2022-12-20T02:56:29;45.43;;;17.13;;
24425;SDS011;12611;44.446;26.000;2022-12-20T02:59:01;51.30;;;18.70;;
24425;SDS011;12611;44.446;26.000;2022-12-20T03:01:36;57.20;;;20.63;;
24425;SDS011;12611;44.446;26.000;2022-12-20T03:04:08;54.23;;;18.67;;
24425;SDS011;12611;44.446;26.000;2022-12-20T03:06:37;41.40;;;16.13;;
24425;SDS011;12611;44.446;26.000;2022-12-20T03:09:06;45.80;;;17.70;;
24425;SDS011;12611;44.446;26.000;2022-12-20T03:11:34;47.33;;;17.63;;
24425;SDS011;12611;44.446;26.000;2022-12-20T03:14:02;57.20;;;21.45;;
24425;SDS011;12611;44.446;26.000;2022-12-20T03:16:31;46.60;;;17.53;;
24425;SDS011;12611;44.446;26.000;2022-12-20T03:19:00;48.03;;;18.23;;
24425;SDS011;12611;44.446;26.000;2022-12-20T03:21:29;45.07;;;17.53;;
24425;SDS011;12611;44.446;26.000;2022-12-20T03:23:57;36.70;;;17.30;;
24425;SDS011;12611;44.446;26.000;2022-12-20T03:26:25;52.43;;;17.93;;
24425;SDS011;12611;44.446;26.000;2022-12-20T03:28:54;53.95;;;22.58;;
24425;SDS011;12611;44.446;26.000;2022-12-20T03:31:22;49.57;;;19.93;;
24425;SDS011;12611;44.446;26.000;2022-12-20T03:33:50;52.83;;;18.73;;
24425;SDS011;12611;44.446;26.000;2022-12-20T03:36:20;48.63;;;18.83;;
24425;SDS011;12611;44.446;26.000;2022-12-20T03:38:49;48.73;;;18.10;;
24425;SDS011;12611;44.446;26.000;2022-12-20T03:41:18;52.88;;;21.83;;
24425;SDS011;12611;44.446;26.000;2022-12-20T03:43:47;42.57;;;18.03;;
24425;SDS011;12611;44.446;26.000;2022-12-20T03:46:16;49.83;;;18.47;;
24425;SDS011;12611;44.446;26.000;2022-12-20T03:48:45;59.77;;;20.93;;
24425;SDS011;12611;44.446;26.000;2022-12-20T03:51:13;49.53;;;19.23;;
24425;SDS011;12611;44.446;26.000;2022-12-20T03:53:43;57.93;;;22.27;;
24425;SDS011;12611;44.446;26.000;2022-12-20T03:56:11;47.07;;;19.33;;
24425;SDS011;12611;44.446;26.000;2022-12-20T03:58:39;45.97;;;18.10;;
24425;SDS011;12611;44.446;26.000;2022-12-20T04:01:18;57.37;;;19.60;;
24425;SDS011;12611;44.446;26.000;2022-12-20T04:03:48;50.47;;;19.33;;
24425;SDS011;12611;44.446;26.000;2022-12-20T04:06:16;62.03;;;19.60;;
24425;SDS011;12611;44.446;26.000;2022-12-20T04:08:47;51.70;;;19.70;;
24425;SDS011;12611;44.446;26.000;2022-12-20T04:11:15;47.13;;;18.67;;
24425;SDS011;12611;44.446;26.000;2022-12-20T04:13:44;46.87;;;20.10;;
24425;SDS011;12611;44.446;26.000;2022-12-20T04:16:14;50.03;;;19.33;;
24425;SDS011;12611;44.446;26.000;2022-12-20T04:18:44;60.13;;;20.20;;
24425;SDS011;12611;44.446;26.000;2022-12-20T04:21:12;53.00;;;19.63;;
24425;SDS011;12611;44.446;26.000;2022-12-20T04:23:41;55.77;;;19.17;;
24425;SDS011;12611;44.446;26.000;2022-12-20T04:26:11;46.50;;;19.03;;
24425;SDS011;12611;44.446;26.000;2022-12-20T04:28:40;49.23;;;20.27;;
24425;SDS011;12611;44.446;26.000;2022-12-20T04:31:08;57.37;;;19.80;;
24425;SDS011;12611;44.446;26.000;2022-12-20T04:33:37;59.83;;;24.27;;
24425;SDS011;12611;44.446;26.000;2022-12-20T04:36:05;54.23;;;20.70;;
24425;SDS011;12611;44.446;26.000;2022-12-20T04:38:34;54.13;;;20.03;;
24425;SDS011;12611;44.446;26.000;2022-12-20T04:41:02;57.13;;;20.10;;
24425;SDS011;12611;44.446;26.000;2022-12-20T04:43:32;52.97;;;18.97;;
24425;SDS011;12611;44.446;26.000;2022-12-20T04:46:01;50.70;;;19.47;;
24425;SDS011;12611;44.446;26.000;2022-12-20T04:48:29;46.23;;;18.43;;
24425;SDS011;12611;44.446;26.000;2022-12-20T04:51:17;51.13;;;18.43;;
24425;SDS011;12611;44.446;26.000;2022-12-20T04:53:47;59.03;;;22.00;;
24425;SDS011;12611;44.446;26.000;2022-12-20T04:56:15;47.83;;;20.90;;
24425;SDS011;12611;44.446;26.000;2022-12-20T04:58:47;62.27;;;21.23;;
24425;SDS011;12611;44.446;26.000;2022-12-20T05:01:16;52.10;;;19.90;;
24425;SDS011;12611;44.446;26.000;2022-12-20T05:03:45;54.13;;;21.50;;
24425;SDS011;12611;44.446;26.000;2022-12-20T05:06:15;56.60;;;21.07;;
24425;SDS011;12611;44.446;26.000;2022-12-20T05:08:43;50.93;;;19.87;;
24425;SDS011;12611;44.446;26.000;2022-12-20T05:11:11;48.90;;;20.50;;
24425;SDS011;12611;44.446;26.000;2022-12-20T05:13:40;47.53;;;19.67;;
24425;SDS011;12611;44.446;26.000;2022-12-20T05:16:09;50.13;;;20.43;;
24425;SDS011;12611;44.446;26.000;2022-12-20T05:18:39;47.57;;;20.20;;
24425;SDS011;12611;44.446;26.000;2022-12-20T05:21:14;56.77;;;20.17;;
24425;SDS011;12611;44.446;26.000;2022-12-20T05:23:59;60.03;;;22.77;;
24425;SDS011;12611;44.446;26.000;2022-12-20T05:26:45;50.27;;;19.20;;
24425;SDS011;12611;44.446;26.000;2022-12-20T05:29:14;53.87;;;19.63;;
24425;SDS011;12611;44.446;26.000;2022-12-20T05:31:44;54.23;;;19.40;;
24425;SDS011;12611;44.446;26.000;2022-12-20T05:34:13;45.60;;;19.53;;
24425;SDS011;12611;44.446;26.000;2022-12-20T05:36:41;49.53;;;18.97;;
24425;SDS011;12611;44.446;26.000;2022-12-20T05:39:10;53.30;;;21.90;;
24425;SDS011;12611;44.446;26.000;2022-12-20T05:41:38;50.73;;;21.33;;
24425;SDS011;12611;44.446;26.000;2022-12-20T05:44:06;47.90;;;20.27;;
24425;SDS011;12611;44.446;26.000;2022-12-20T05:46:35;49.90;;;19.57;;
24425;SDS011;12611;44.446;26.000;2022-12-20T05:49:05;50.53;;;20.30;;
24425;SDS011;12611;44.446;26.000;2022-12-20T05:51:33;58.75;;;24.10;;
24425;SDS011;12611;44.446;26.000;2022-12-20T05:54:01;58.67;;;22.60;;
24425;SDS011;12611;44.446;26.000;2022-12-20T05:56:31;44.47;;;18.40;;
24425;SDS011;12611;44.446;26.000;2022-12-20T05:58:59;47.37;;;19.60;;
24425;SDS011;12611;44.446;26.000;2022-12-20T06:01:27;46.67;;;18.77;;
24425;SDS011;12611;44.446;26.000;2022-12-20T06:03:56;51.33;;;20.52;;
24425;SDS011;12611;44.446;26.000;2022-12-20T06:06:26;47.73;;;18.10;;
24425;SDS011;12611;44.446;26.000;2022-12-20T06:08:54;47.33;;;17.73;;
24425;SDS011;12611;44.446;26.000;2022-12-20T06:11:22;44.73;;;18.10;;
24425;SDS011;12611;44.446;26.000;2022-12-20T06:13:55;49.43;;;20.30;;
24425;SDS011;12611;44.446;26.000;2022-12-20T06:16:24;62.37;;;25.60;;
24425;SDS011;12611;44.446;26.000;2022-12-20T06:18:54;69.45;;;27.45;;
24425;SDS011;12611;44.446;26.000;2022-12-20T06:21:22;54.00;;;22.77;;
24425;SDS011;12611;44.446;26.000;2022-12-20T06:23:52;54.17;;;21.27;;
24425;SDS011;12611;44.446;26.000;2022-12-20T06:26:20;53.43;;;20.13;;
24425;SDS011;12611;44.446;26.000;2022-12-20T06:28:49;42.77;;;18.93;;
24425;SDS011;12611;44.446;26.000;2022-12-20T06:31:20;60.38;;;25.17;;
24425;SDS011;12611;44.446;26.000;2022-12-20T06:33:48;59.00;;;21.90;;
24425;SDS011;12611;44.446;26.000;2022-12-20T06:36:17;49.43;;;22.97;;
24425;SDS011;12611;44.446;26.000;2022-12-20T06:38:45;57.70;;;21.00;;
24425;SDS011;12611;44.446;26.000;2022-12-20T06:41:15;62.73;;;22.53;;
24425;SDS011;12611;44.446;26.000;2022-12-20T06:43:43;58.55;;;24.05;;
24425;SDS011;12611;44.446;26.000;2022-12-20T06:46:12;53.67;;;22.50;;
24425;SDS011;12611;44.446;26.000;2022-12-20T06:48:40;53.03;;;21.17;;
24425;SDS011;12611;44.446;26.000;2022-12-20T06:51:08;57.00;;;21.10;;
24425;SDS011;12611;44.446;26.000;2022-12-20T06:53:37;56.50;;;20.83;;
24425;SDS011;12611;44.446;26.000;2022-12-20T06:56:06;45.07;;;17.80;;
24425;SDS011;12611;44.446;26.000;2022-12-20T06:58:35;42.87;;;18.37;;
24425;SDS011;12611;44.446;26.000;2022-12-20T07:01:04;63.73;;;17.87;;
24425;SDS011;12611;44.446;26.000;2022-12-20T07:03:32;48.50;;;18.70;;
24425;SDS011;12611;44.446;26.000;2022-12-20T07:06:01;51.03;;;20.13;;
24425;SDS011;12611;44.446;26.000;2022-12-20T07:08:29;48.57;;;20.30;;
24425;SDS011;12611;44.446;26.000;2022-12-20T07:11:02;47.73;;;18.90;;
24425;SDS011;12611;44.446;26.000;2022-12-20T07:13:31;60.43;;;20.40;;
24425;SDS011;12611;44.446;26.000;2022-12-20T07:16:01;51.70;;;19.33;;
24425;SDS011;12611;44.446;26.000;2022-12-20T07:18:30;46.97;;;19.20;;
24425;SDS011;12611;44.446;26.000;2022-12-20T07:21:00;47.13;;;18.77;;
24425;SDS011;12611;44.446;26.000;2022-12-20T07:23:30;59.15;;;23.02;;
24425;SDS011;12611;44.446;26.000;2022-12-20T07:25:59;43.83;;;18.73;;
24425;SDS011;12611;44.446;26.000;2022-12-20T07:28:29;46.60;;;19.07;;
24425;SDS011;12611;44.446;26.000;2022-12-20T07:31:00;49.10;;;18.73;;
24425;SDS011;12611;44.446;26.000;2022-12-20T07:33:30;60.77;;;20.33;;
24425;SDS011;12611;44.446;26.000;2022-12-20T07:35:59;54.73;;;22.77;;
24425;SDS011;12611;44.446;26.000;2022-12-20T07:38:28;57.93;;;21.20;;
24425;SDS011;12611;44.446;26.000;2022-12-20T07:40:56;40.37;;;18.03;;
24425;SDS011;12611;44.446;26.000;2022-12-20T07:43:25;47.33;;;19.30;;
24425;SDS011;12611;44.446;26.000;2022-12-20T07:45:54;52.20;;;19.50;;
24425;SDS011;12611;44.446;26.000;2022-12-20T07:48:24;47.67;;;18.30;;
24425;SDS011;12611;44.446;26.000;2022-12-20T07:50:54;41.37;;;16.47;;
24425;SDS011;12611;44.446;26.000;2022-12-20T07:53:25;45.17;;;17.87;;
24425;SDS011;12611;44.446;26.000;2022-12-20T07:55:55;47.23;;;16.83;;
24425;SDS011;12611;44.446;26.000;2022-12-20T07:58:25;43.87;;;17.90;;
24425;SDS011;12611;44.446;26.000;2022-12-20T08:00:55;43.77;;;15.37;;
24425;SDS011;12611;44.446;26.000;2022-12-20T08:03:26;46.07;;;17.67;;
24425;SDS011;12611;44.446;26.000;2022-12-20T08:08:56;49.60;;;18.93;;
24425;SDS011;12611;44.446;26.000;2022-12-20T08:11:27;39.73;;;16.90;;
24425;SDS011;12611;44.446;26.000;2022-12-20T08:13:56;42.73;;;17.87;;
24425;SDS011;12611;44.446;26.000;2022-12-20T08:16:25;47.07;;;18.80;;
24425;SDS011;12611;44.446;26.000;2022-12-20T08:18:55;37.70;;;16.87;;
24425;SDS011;12611;44.446;26.000;2022-12-20T08:21:23;41.63;;;18.83;;
24425;SDS011;12611;44.446;26.000;2022-12-20T08:23:51;45.37;;;17.77;;
24425;SDS011;12611;44.446;26.000;2022-12-20T08:26:20;46.17;;;17.23;;
24425;SDS011;12611;44.446;26.000;2022-12-20T08:28:48;47.23;;;18.17;;
24425;SDS011;12611;44.446;26.000;2022-12-20T08:31:21;40.43;;;17.93;;
24425;SDS011;12611;44.446;26.000;2022-12-20T08:34:06;42.17;;;16.30;;
24425;SDS011;12611;44.446;26.000;2022-12-20T08:36:35;37.33;;;16.30;;
24425;SDS011;12611;44.446;26.000;2022-12-20T08:39:04;45.00;;;15.83;;
24425;SDS011;12611;44.446;26.000;2022-12-20T08:41:33;43.40;;;16.40;;
24425;SDS011;12611;44.446;26.000;2022-12-20T08:44:02;36.57;;;17.27;;
24425;SDS011;12611;44.446;26.000;2022-12-20T08:46:31;44.20;;;14.80;;
24425;SDS011;12611;44.446;26.000;2022-12-20T08:49:00;45.80;;;17.47;;
24425;SDS011;12611;44.446;26.000;2022-12-20T08:51:30;39.00;;;17.13;;
24425;SDS011;12611;44.446;26.000;2022-12-20T08:53:58;45.67;;;18.13;;
24425;SDS011;12611;44.446;26.000;2022-12-20T08:56:27;43.13;;;19.75;;
24425;SDS011;12611;44.446;26.000;2022-12-20T08:58:58;45.57;;;17.27;;
24425;SDS011;12611;44.446;26.000;2022-12-20T09:01:26;40.87;;;16.13;;
24425;SDS011;12611;44.446;26.000;2022-12-20T09:03:55;40.30;;;15.60;;
24425;SDS011;12611;44.446;26.000;2022-12-20T09:06:24;34.47;;;15.53;;
24425;SDS011;12611;44.446;26.000;2022-12-20T09:08:54;41.47;;;15.43;;
24425;SDS011;12611;44.446;26.000;2022-12-20T09:11:23;37.23;;;14.77;;
24425;SDS011;12611;44.446;26.000;2022-12-20T09:13:53;37.13;;;15.30;;
24425;SDS011;12611;44.446;26.000;2022-12-20T09:16:24;40.20;;;16.67;;
24425;SDS011;12611;44.446;26.000;2022-12-20T09:18:54;37.03;;;15.87;;
24425;SDS011;12611;44.446;26.000;2022-12-20T09:21:30;43.30;;;18.00;;
24425;SDS011;12611;44.446;26.000;2022-12-20T09:24:00;46.80;;;16.20;;
24425;SDS011;12611;44.446;26.000;2022-12-20T09:26:29;40.73;;;17.43;;
24425;SDS011;12611;44.446;26.000;2022-12-20T09:28:57;42.03;;;17.13;;
24425;SDS011;12611;44.446;26.000;2022-12-20T09:31:27;38.30;;;15.67;;
24425;SDS011;12611;44.446;26.000;2022-12-20T09:33:57;39.83;;;17.17;;
24425;SDS011;12611;44.446;26.000;2022-12-20T09:36:26;41.40;;;16.90;;
24425;SDS011;12611;44.446;26.000;2022-12-20T09:38:56;41.97;;;17.13;;
24425;SDS011;12611;44.446;26.000;2022-12-20T09:41:27;42.97;;;18.40;;
24425;SDS011;12611;44.446;26.000;2022-12-20T09:44:01;52.10;;;19.03;;
24425;SDS011;12611;44.446;26.000;2022-12-20T09:46:32;39.73;;;16.80;;
24425;SDS011;12611;44.446;26.000;2022-12-20T09:49:02;38.93;;;16.60;;
24425;SDS011;12611;44.446;26.000;2022-12-20T09:51:35;42.30;;;18.20;;
24425;SDS011;12611;44.446;26.000;2022-12-20T09:54:21;45.17;;;18.03;;
24425;SDS011;12611;44.446;26.000;2022-12-20T09:57:02;38.17;;;15.63;;
24425;SDS011;12611;44.446;26.000;2022-12-20T09:59:37;44.13;;;19.13;;
24425;SDS011;12611;44.446;26.000;2022-12-20T10:02:53;49.67;;;19.13;;
24425;SDS011;12611;44.446;26.000;2022-12-20T10:06:18;45.73;;;16.50;;
24425;SDS011;12611;44.446;26.000;2022-12-20T10:12:23;43.60;;;18.20;;
24425;SDS011;12611;44.446;26.000;2022-12-20T10:17:45;36.30;;;15.43;;
24425;SDS011;12611;44.446;26.000;2022-12-20T10:20:27;37.70;;;15.50;;
24425;SDS011;12611;44.446;26.000;2022-12-20T10:23:10;39.33;;;15.23;;
24425;SDS011;12611;44.446;26.000;2022-12-20T10:25:43;39.73;;;16.00;;
24425;SDS011;12611;44.446;26.000;2022-12-20T10:28:15;35.95;;;15.73;;
24425;SDS011;12611;44.446;26.000;2022-12-20T10:30:46;40.47;;;15.83;;
24425;SDS011;12611;44.446;26.000;2022-12-20T10:33:18;39.53;;;15.67;;
24425;SDS011;12611;44.446;26.000;2022-12-20T10:35:49;40.33;;;16.03;;
24425;SDS011;12611;44.446;26.000;2022-12-20T10:38:18;36.33;;;16.23;;
24425;SDS011;12611;44.446;26.000;2022-12-20T10:40:58;35.73;;;13.97;;
24425;SDS011;12611;44.446;26.000;2022-12-20T10:43:50;41.15;;;16.67;;
24425;SDS011;12611;44.446;26.000;2022-12-20T10:46:22;32.23;;;14.13;;
24425;SDS011;12611;44.446;26.000;2022-12-20T10:49:20;40.20;;;15.03;;
24425;SDS011;12611;44.446;26.000;2022-12-20T10:51:57;32.67;;;13.77;;
24425;SDS011;12611;44.446;26.000;2022-12-20T10:54:29;35.90;;;13.77;;
24425;SDS011;12611;44.446;26.000;2022-12-20T10:56:59;47.63;;;20.60;;
24425;SDS011;12611;44.446;26.000;2022-12-20T10:59:32;38.20;;;16.50;;
24425;SDS011;12611;44.446;26.000;2022-12-20T11:02:15;34.10;;;14.93;;
24425;SDS011;12611;44.446;26.000;2022-12-20T11:05:02;38.20;;;14.67;;
24425;SDS011;12611;44.446;26.000;2022-12-20T11:07:52;41.27;;;16.67;;
24425;SDS011;12611;44.446;26.000;2022-12-20T11:10:42;43.37;;;16.50;;
24425;SDS011;12611;44.446;26.000;2022-12-20T11:13:18;32.10;;;14.87;;
24425;SDS011;12611;44.446;26.000;2022-12-20T11:15:53;31.53;;;13.40;;
24425;SDS011;12611;44.446;26.000;2022-12-20T11:18:29;28.83;;;13.77;;
24425;SDS011;12611;44.446;26.000;2022-12-20T11:21:10;35.83;;;15.60;;
24425;SDS011;12611;44.446;26.000;2022-12-20T11:23:55;34.07;;;14.63;;
24425;SDS011;12611;44.446;26.000;2022-12-20T11:26:34;35.37;;;15.07;;
24425;SDS011;12611;44.446;26.000;2022-12-20T11:29:30;29.60;;;12.17;;
24425;SDS011;12611;44.446;26.000;2022-12-20T11:32:15;42.53;;;17.48;;
24425;SDS011;12611;44.446;26.000;2022-12-20T11:34:56;38.30;;;15.90;;
24425;SDS011;12611;44.446;26.000;2022-12-20T11:37:35;38.17;;;16.20;;
24425;SDS011;12611;44.446;26.000;2022-12-20T11:40:17;36.53;;;14.63;;
24425;SDS011;12611;44.446;26.000;2022-12-20T11:46:25;38.07;;;14.27;;
24425;SDS011;12611;44.446;26.000;2022-12-20T11:49:08;34.17;;;14.73;;
24425;SDS011;12611;44.446;26.000;2022-12-20T11:51:51;35.63;;;13.77;;
24425;SDS011;12611;44.446;26.000;2022-12-20T11:54:27;45.43;;;15.07;;
24425;SDS011;12611;44.446;26.000;2022-12-20T11:57:00;35.00;;;14.73;;
24425;SDS011;12611;44.446;26.000;2022-12-20T11:59:33;38.07;;;15.33;;
24425;SDS011;12611;44.446;26.000;2022-12-20T12:02:10;43.00;;;14.87;;
24425;SDS011;12611;44.446;26.000;2022-12-20T12:04:42;34.83;;;14.43;;
24425;SDS011;12611;44.446;26.000;2022-12-20T12:07:14;33.20;;;12.97;;
24425;SDS011;12611;44.446;26.000;2022-12-20T12:09:48;33.80;;;13.67;;
24425;SDS011;12611;44.446;26.000;2022-12-20T12:12:23;37.03;;;15.80;;
24425;SDS011;12611;44.446;26.000;2022-12-20T12:14:55;33.27;;;12.83;;
24425;SDS011;12611;44.446;26.000;2022-12-20T12:17:37;32.23;;;14.77;;
24425;SDS011;12611;44.446;26.000;2022-12-20T12:20:19;35.60;;;14.60;;
24425;SDS011;12611;44.446;26.000;2022-12-20T12:22:53;38.93;;;14.80;;
24425;SDS011;12611;44.446;26.000;2022-12-20T12:25:26;30.33;;;13.10;;
24425;SDS011;12611;44.446;26.000;2022-12-20T12:28:01;33.83;;;14.20;;
24425;SDS011;12611;44.446;26.000;2022-12-20T12:30:34;34.53;;;12.93;;
24425;SDS011;12611;44.446;26.000;2022-12-20T12:33:07;29.33;;;12.90;;
24425;SDS011;12611;44.446;26.000;2022-12-20T12:36:00;33.50;;;13.93;;
24425;SDS011;12611;44.446;26.000;2022-12-20T12:39:02;26.13;;;11.53;;
24425;SDS011;12611;44.446;26.000;2022-12-20T12:41:57;36.33;;;14.43;;
24425;SDS011;12611;44.446;26.000;2022-12-20T12:44:39;32.77;;;13.57;;
24425;SDS011;12611;44.446;26.000;2022-12-20T12:47:15;29.50;;;13.30;;
24425;SDS011;12611;44.446;26.000;2022-12-20T12:49:49;31.23;;;12.90;;
24425;SDS011;12611;44.446;26.000;2022-12-20T13:00:58;26.27;;;11.67;;
24425;SDS011;12611;44.446;26.000;2022-12-20T13:09:48;30.77;;;12.87;;
24425;SDS011;12611;44.446;26.000;2022-12-20T13:18:27;33.77;;;15.00;;
24425;SDS011;12611;44.446;26.000;2022-12-20T13:23:43;33.77;;;13.67;;
24425;SDS011;12611;44.446;26.000;2022-12-20T13:26:42;26.83;;;11.57;;
24425;SDS011;12611;44.446;26.000;2022-12-20T13:29:24;30.67;;;13.07;;
24425;SDS011;12611;44.446;26.000;2022-12-20T13:31:54;39.77;;;14.37;;
24425;SDS011;12611;44.446;26.000;2022-12-20T13:34:35;37.33;;;14.73;;
24425;SDS011;12611;44.446;26.000;2022-12-20T13:37:51;33.53;;;13.93;;
24425;SDS011;12611;44.446;26.000;2022-12-20T13:40:22;36.00;;;13.70;;
24425;SDS011;12611;44.446;26.000;2022-12-20T13:42:59;35.97;;;14.07;;
24425;SDS011;12611;44.446;26.000;2022-12-20T13:45:34;32.33;;;14.17;;
24425;SDS011;12611;44.446;26.000;2022-12-20T13:48:06;39.93;;;15.30;;
24425;SDS011;12611;44.446;26.000;2022-12-20T13:50:46;36.90;;;14.03;;
24425;SDS011;12611;44.446;26.000;2022-12-20T13:53:16;32.87;;;14.13;;
24425;SDS011;12611;44.446;26.000;2022-12-20T13:55:47;34.07;;;14.67;;
24425;SDS011;12611;44.446;26.000;2022-12-20T13:58:17;34.03;;;13.73;;
24425;SDS011;12611;44.446;26.000;2022-12-20T14:00:48;34.60;;;14.30;;
24425;SDS011;12611;44.446;26.000;2022-12-20T14:03:21;42.70;;;14.20;;
24425;SDS011;12611;44.446;26.000;2022-12-20T14:05:55;32.83;;;14.23;;
24425;SDS011;12611;44.446;26.000;2022-12-20T14:08:25;33.77;;;13.23;;
24425;SDS011;12611;44.446;26.000;2022-12-20T14:11:05;36.63;;;15.23;;
24425;SDS011;12611;44.446;26.000;2022-12-20T14:13:37;43.93;;;17.30;;
24425;SDS011;12611;44.446;26.000;2022-12-20T14:16:06;38.70;;;15.83;;
24425;SDS011;12611;44.446;26.000;2022-12-20T14:18:37;37.40;;;17.03;;
24425;SDS011;12611;44.446;26.000;2022-12-20T14:21:06;44.13;;;21.80;;
24425;SDS011;12611;44.446;26.000;2022-12-20T14:23:38;37.83;;;17.57;;
24425;SDS011;12611;44.446;26.000;2022-12-20T14:26:09;36.13;;;15.00;;
24425;SDS011;12611;44.446;26.000;2022-12-20T14:35:04;63.77;;;23.17;;
24425;SDS011;12611;44.446;26.000;2022-12-20T14:37:33;38.73;;;15.23;;
24425;SDS011;12611;44.446;26.000;2022-12-20T14:40:13;35.90;;;14.93;;
24425;SDS011;12611;44.446;26.000;2022-12-20T14:42:44;44.63;;;17.97;;
24425;SDS011;12611;44.446;26.000;2022-12-20T14:45:20;41.97;;;16.40;;
24425;SDS011;12611;44.446;26.000;2022-12-20T14:47:55;42.80;;;17.17;;
24425;SDS011;12611;44.446;26.000;2022-12-20T14:50:27;45.53;;;16.60;;
24425;SDS011;12611;44.446;26.000;2022-12-20T14:52:57;49.63;;;17.83;;
24425;SDS011;12611;44.446;26.000;2022-12-20T14:55:30;40.53;;;15.53;;
24425;SDS011;12611;44.446;26.000;2022-12-20T14:58:05;51.93;;;18.90;;
24425;SDS011;12611;44.446;26.000;2022-12-20T15:00:56;55.47;;;20.73;;
24425;SDS011;12611;44.446;26.000;2022-12-20T15:03:27;50.80;;;18.70;;
24425;SDS011;12611;44.446;26.000;2022-12-20T15:05:56;43.13;;;17.10;;
24425;SDS011;12611;44.446;26.000;2022-12-20T15:08:26;46.97;;;16.27;;
24425;SDS011;12611;44.446;26.000;2022-12-20T15:10:58;45.83;;;17.63;;
24425;SDS011;12611;44.446;26.000;2022-12-20T15:13:30;54.07;;;18.37;;
24425;SDS011;12611;44.446;26.000;2022-12-20T15:16:00;49.47;;;17.57;;
24425;SDS011;12611;44.446;26.000;2022-12-20T15:18:32;43.70;;;17.67;;
24425;SDS011;12611;44.446;26.000;2022-12-20T15:21:02;53.30;;;18.50;;
24425;SDS011;12611;44.446;26.000;2022-12-20T15:23:32;53.77;;;18.57;;